sensor_id;sensor_type;location;lat;lon;timestamp;P1;durP1;ratioP1;P2;durP2;ratioP2
38513;SDS011;24282;48.400;10.808;2023-05-20T00:00:54;2.73;;;2.00;;
38513;SDS011;24282;48.400;10.808;2023-05-20T00:03:20;2.90;;;2.07;;
38513;SDS011;24282;48.400;10.808;2023-05-20T00:05:45;2.40;;;1.80;;
38513;SDS011;24282;48.400;10.808;2023-05-20T00:08:11;3.00;;;1.93;;
38513;SDS011;24282;48.400;10.808;2023-05-20T00:10:37;3.37;;;2.30;;
38513;SDS011;24282;48.400;10.808;2023-05-20T00:13:03;2.37;;;1.60;;
38513;SDS011;24282;48.400;10.808;2023-05-20T00:15:30;2.43;;;1.83;;
38513;SDS011;24282;48.400;10.808;2023-05-20T00:17:56;2.60;;;2.00;;
38513;SDS011;24282;48.400;10.808;2023-05-20T00:20:25;2.60;;;1.87;;
38513;SDS011;24282;48.400;10.808;2023-05-20T00:22:51;3.17;;;1.80;;
38513;SDS011;24282;48.400;10.808;2023-05-20T00:25:17;3.10;;;1.63;;
38513;SDS011;24282;48.400;10.808;2023-05-20T00:27:42;2.37;;;1.90;;
38513;SDS011;24282;48.400;10.808;2023-05-20T00:30:09;5.20;;;1.97;;
38513;SDS011;24282;48.400;10.808;2023-05-20T00:32:35;3.33;;;2.43;;
38513;SDS011;24282;48.400;10.808;2023-05-20T00:35:01;2.33;;;1.77;;
38513;SDS011;24282;48.400;10.808;2023-05-20T00:37:27;3.43;;;2.30;;
38513;SDS011;24282;48.400;10.808;2023-05-20T00:39:53;2.87;;;1.83;;
38513;SDS011;24282;48.400;10.808;2023-05-20T00:42:20;2.33;;;1.83;;
38513;SDS011;24282;48.400;10.808;2023-05-20T00:44:49;2.87;;;2.10;;
38513;SDS011;24282;48.400;10.808;2023-05-20T00:47:16;2.80;;;2.03;;
38513;SDS011;24282;48.400;10.808;2023-05-20T00:49:44;3.17;;;2.00;;
38513;SDS011;24282;48.400;10.808;2023-05-20T00:52:10;3.03;;;2.00;;
38513;SDS011;24282;48.400;10.808;2023-05-20T00:54:38;3.27;;;2.07;;
38513;SDS011;24282;48.400;10.808;2023-05-20T00:57:05;2.67;;;1.80;;
38513;SDS011;24282;48.400;10.808;2023-05-20T00:59:32;3.17;;;2.40;;
38513;SDS011;24282;48.400;10.808;2023-05-20T01:01:59;2.57;;;1.87;;
38513;SDS011;24282;48.400;10.808;2023-05-20T01:04:26;3.30;;;2.60;;
38513;SDS011;24282;48.400;10.808;2023-05-20T01:06:52;2.17;;;1.80;;
38513;SDS011;24282;48.400;10.808;2023-05-20T01:09:19;2.97;;;2.33;;
38513;SDS011;24282;48.400;10.808;2023-05-20T01:12:10;3.47;;;2.23;;
38513;SDS011;24282;48.400;10.808;2023-05-20T01:14:45;4.40;;;2.10;;
38513;SDS011;24282;48.400;10.808;2023-05-20T01:17:12;2.57;;;2.00;;
38513;SDS011;24282;48.400;10.808;2023-05-20T01:19:42;2.83;;;2.50;;
38513;SDS011;24282;48.400;10.808;2023-05-20T01:22:12;4.60;;;2.47;;
38513;SDS011;24282;48.400;10.808;2023-05-20T01:24:47;2.83;;;2.37;;
38513;SDS011;24282;48.400;10.808;2023-05-20T01:27:14;2.97;;;2.40;;
38513;SDS011;24282;48.400;10.808;2023-05-20T01:29:40;2.73;;;2.23;;
38513;SDS011;24282;48.400;10.808;2023-05-20T01:32:11;2.50;;;1.87;;
38513;SDS011;24282;48.400;10.808;2023-05-20T01:34:54;4.50;;;2.90;;
38513;SDS011;24282;48.400;10.808;2023-05-20T01:37:21;3.40;;;2.20;;
38513;SDS011;24282;48.400;10.808;2023-05-20T01:39:54;3.27;;;2.33;;
38513;SDS011;24282;48.400;10.808;2023-05-20T01:42:30;2.53;;;2.03;;
38513;SDS011;24282;48.400;10.808;2023-05-20T01:44:57;3.13;;;2.10;;
38513;SDS011;24282;48.400;10.808;2023-05-20T01:47:33;3.73;;;2.63;;
38513;SDS011;24282;48.400;10.808;2023-05-20T01:50:01;2.63;;;2.13;;
38513;SDS011;24282;48.400;10.808;2023-05-20T01:52:27;3.33;;;2.70;;
38513;SDS011;24282;48.400;10.808;2023-05-20T01:54:56;2.70;;;2.33;;
38513;SDS011;24282;48.400;10.808;2023-05-20T01:57:30;3.10;;;2.50;;
38513;SDS011;24282;48.400;10.808;2023-05-20T02:00:04;4.53;;;2.60;;
38513;SDS011;24282;48.400;10.808;2023-05-20T02:02:38;2.93;;;2.20;;
38513;SDS011;24282;48.400;10.808;2023-05-20T02:05:13;2.97;;;2.13;;
38513;SDS011;24282;48.400;10.808;2023-05-20T02:07:42;2.80;;;2.00;;
38513;SDS011;24282;48.400;10.808;2023-05-20T02:10:13;3.70;;;2.80;;
38513;SDS011;24282;48.400;10.808;2023-05-20T02:12:50;3.33;;;2.67;;
38513;SDS011;24282;48.400;10.808;2023-05-20T02:15:27;3.30;;;2.50;;
38513;SDS011;24282;48.400;10.808;2023-05-20T02:18:05;3.23;;;2.70;;
38513;SDS011;24282;48.400;10.808;2023-05-20T02:20:36;3.27;;;2.47;;
38513;SDS011;24282;48.400;10.808;2023-05-20T02:23:07;4.65;;;2.42;;
38513;SDS011;24282;48.400;10.808;2023-05-20T02:25:35;3.27;;;2.57;;
38513;SDS011;24282;48.400;10.808;2023-05-20T02:28:12;3.10;;;2.50;;
38513;SDS011;24282;48.400;10.808;2023-05-20T02:30:40;3.53;;;2.57;;
38513;SDS011;24282;48.400;10.808;2023-05-20T02:33:09;3.00;;;2.40;;
38513;SDS011;24282;48.400;10.808;2023-05-20T02:35:39;4.60;;;2.58;;
38513;SDS011;24282;48.400;10.808;2023-05-20T02:38:07;3.30;;;2.70;;
38513;SDS011;24282;48.400;10.808;2023-05-20T02:40:43;3.47;;;2.47;;
38513;SDS011;24282;48.400;10.808;2023-05-20T02:43:14;3.07;;;2.30;;
38513;SDS011;24282;48.400;10.808;2023-05-20T02:45:40;3.47;;;2.70;;
38513;SDS011;24282;48.400;10.808;2023-05-20T02:48:14;3.80;;;2.50;;
38513;SDS011;24282;48.400;10.808;2023-05-20T02:50:43;2.80;;;2.50;;
38513;SDS011;24282;48.400;10.808;2023-05-20T02:53:15;3.60;;;2.60;;
38513;SDS011;24282;48.400;10.808;2023-05-20T02:55:45;4.30;;;2.70;;
38513;SDS011;24282;48.400;10.808;2023-05-20T02:58:14;3.77;;;2.50;;
38513;SDS011;24282;48.400;10.808;2023-05-20T03:00:45;3.13;;;2.30;;
38513;SDS011;24282;48.400;10.808;2023-05-20T03:03:13;3.27;;;2.43;;
38513;SDS011;24282;48.400;10.808;2023-05-20T03:05:51;3.60;;;2.83;;
38513;SDS011;24282;48.400;10.808;2023-05-20T03:08:26;2.90;;;2.50;;
38513;SDS011;24282;48.400;10.808;2023-05-20T03:10:55;3.03;;;2.70;;
38513;SDS011;24282;48.400;10.808;2023-05-20T03:13:41;2.83;;;2.20;;
38513;SDS011;24282;48.400;10.808;2023-05-20T03:16:09;4.17;;;2.60;;
38513;SDS011;24282;48.400;10.808;2023-05-20T03:18:43;3.40;;;2.67;;
38513;SDS011;24282;48.400;10.808;2023-05-20T03:21:11;3.40;;;2.50;;
38513;SDS011;24282;48.400;10.808;2023-05-20T03:23:45;3.37;;;2.80;;
38513;SDS011;24282;48.400;10.808;2023-05-20T03:26:11;3.07;;;2.57;;
38513;SDS011;24282;48.400;10.808;2023-05-20T03:28:37;3.57;;;2.50;;
38513;SDS011;24282;48.400;10.808;2023-05-20T03:31:12;3.88;;;2.60;;
38513;SDS011;24282;48.400;10.808;2023-05-20T03:33:41;3.37;;;2.67;;
38513;SDS011;24282;48.400;10.808;2023-05-20T03:36:09;4.03;;;2.90;;
38513;SDS011;24282;48.400;10.808;2023-05-20T03:38:40;3.33;;;2.43;;
38513;SDS011;24282;48.400;10.808;2023-05-20T03:41:11;4.60;;;2.90;;
38513;SDS011;24282;48.400;10.808;2023-05-20T03:43:42;3.00;;;2.33;;
38513;SDS011;24282;48.400;10.808;2023-05-20T03:46:09;3.03;;;2.40;;
38513;SDS011;24282;48.400;10.808;2023-05-20T03:48:47;3.40;;;2.70;;
38513;SDS011;24282;48.400;10.808;2023-05-20T03:51:28;4.13;;;3.03;;
38513;SDS011;24282;48.400;10.808;2023-05-20T03:54:01;3.78;;;2.58;;
38513;SDS011;24282;48.400;10.808;2023-05-20T03:56:32;4.10;;;3.10;;
38513;SDS011;24282;48.400;10.808;2023-05-20T03:59:07;3.37;;;2.80;;
38513;SDS011;24282;48.400;10.808;2023-05-20T04:01:36;3.88;;;2.80;;
38513;SDS011;24282;48.400;10.808;2023-05-20T04:04:04;3.77;;;2.83;;
38513;SDS011;24282;48.400;10.808;2023-05-20T04:06:33;3.27;;;2.90;;
38513;SDS011;24282;48.400;10.808;2023-05-20T04:09:01;3.70;;;3.07;;
38513;SDS011;24282;48.400;10.808;2023-05-20T04:11:27;3.87;;;3.00;;
38513;SDS011;24282;48.400;10.808;2023-05-20T04:13:55;4.03;;;3.13;;
38513;SDS011;24282;48.400;10.808;2023-05-20T04:16:29;3.83;;;3.07;;
38513;SDS011;24282;48.400;10.808;2023-05-20T04:19:00;4.73;;;3.30;;
38513;SDS011;24282;48.400;10.808;2023-05-20T04:21:26;3.77;;;2.80;;
38513;SDS011;24282;48.400;10.808;2023-05-20T04:23:52;4.07;;;3.00;;
38513;SDS011;24282;48.400;10.808;2023-05-20T04:26:28;3.50;;;3.13;;
38513;SDS011;24282;48.400;10.808;2023-05-20T04:28:54;4.33;;;2.80;;
38513;SDS011;24282;48.400;10.808;2023-05-20T04:31:32;3.23;;;2.50;;
38513;SDS011;24282;48.400;10.808;2023-05-20T04:33:58;4.17;;;3.03;;
38513;SDS011;24282;48.400;10.808;2023-05-20T04:36:31;3.40;;;2.80;;
38513;SDS011;24282;48.400;10.808;2023-05-20T04:39:05;3.37;;;2.67;;
38513;SDS011;24282;48.400;10.808;2023-05-20T04:41:36;3.73;;;3.10;;
38513;SDS011;24282;48.400;10.808;2023-05-20T04:44:04;3.23;;;2.70;;
38513;SDS011;24282;48.400;10.808;2023-05-20T04:46:34;3.57;;;2.70;;
38513;SDS011;24282;48.400;10.808;2023-05-20T04:49:00;3.77;;;2.73;;
38513;SDS011;24282;48.400;10.808;2023-05-20T04:51:32;3.17;;;2.45;;
38513;SDS011;24282;48.400;10.808;2023-05-20T04:54:02;3.20;;;2.60;;
38513;SDS011;24282;48.400;10.808;2023-05-20T04:56:30;4.13;;;3.13;;
38513;SDS011;24282;48.400;10.808;2023-05-20T04:58:57;3.30;;;2.70;;
38513;SDS011;24282;48.400;10.808;2023-05-20T05:01:24;3.30;;;2.80;;
38513;SDS011;24282;48.400;10.808;2023-05-20T05:03:52;3.43;;;2.67;;
38513;SDS011;24282;48.400;10.808;2023-05-20T05:06:24;4.40;;;2.90;;
38513;SDS011;24282;48.400;10.808;2023-05-20T05:11:25;4.47;;;3.20;;
38513;SDS011;24282;48.400;10.808;2023-05-20T05:13:56;3.80;;;2.97;;
38513;SDS011;24282;48.400;10.808;2023-05-20T05:16:24;3.50;;;3.10;;
38513;SDS011;24282;48.400;10.808;2023-05-20T05:18:51;4.37;;;3.23;;
38513;SDS011;24282;48.400;10.808;2023-05-20T05:21:24;4.50;;;2.70;;
38513;SDS011;24282;48.400;10.808;2023-05-20T05:23:52;4.00;;;2.90;;
38513;SDS011;24282;48.400;10.808;2023-05-20T05:26:24;4.10;;;3.23;;
38513;SDS011;24282;48.400;10.808;2023-05-20T05:28:56;3.60;;;3.00;;
38513;SDS011;24282;48.400;10.808;2023-05-20T05:31:32;3.37;;;2.77;;
38513;SDS011;24282;48.400;10.808;2023-05-20T05:34:03;3.90;;;3.47;;
38513;SDS011;24282;48.400;10.808;2023-05-20T05:36:32;3.73;;;3.10;;
38513;SDS011;24282;48.400;10.808;2023-05-20T05:38:58;3.77;;;3.00;;
38513;SDS011;24282;48.400;10.808;2023-05-20T05:41:27;3.57;;;3.20;;
38513;SDS011;24282;48.400;10.808;2023-05-20T05:43:53;5.07;;;3.53;;
38513;SDS011;24282;48.400;10.808;2023-05-20T05:46:19;5.03;;;3.60;;
38513;SDS011;24282;48.400;10.808;2023-05-20T05:48:51;4.60;;;3.67;;
38513;SDS011;24282;48.400;10.808;2023-05-20T05:51:26;5.67;;;4.80;;
38513;SDS011;24282;48.400;10.808;2023-05-20T05:53:58;6.20;;;4.93;;
38513;SDS011;24282;48.400;10.808;2023-05-20T05:56:36;6.17;;;5.57;;
38513;SDS011;24282;48.400;10.808;2023-05-20T05:59:07;6.17;;;5.57;;
38513;SDS011;24282;48.400;10.808;2023-05-20T06:01:39;6.63;;;5.30;;
38513;SDS011;24282;48.400;10.808;2023-05-20T06:04:10;5.97;;;5.10;;
38513;SDS011;24282;48.400;10.808;2023-05-20T06:06:38;6.55;;;5.35;;
38513;SDS011;24282;48.400;10.808;2023-05-20T06:09:14;9.37;;;5.60;;
38513;SDS011;24282;48.400;10.808;2023-05-20T06:11:44;7.13;;;5.78;;
38513;SDS011;24282;48.400;10.808;2023-05-20T06:14:12;5.70;;;5.10;;
38513;SDS011;24282;48.400;10.808;2023-05-20T06:16:43;6.07;;;5.47;;
38513;SDS011;24282;48.400;10.808;2023-05-20T06:19:12;5.28;;;4.78;;
38513;SDS011;24282;48.400;10.808;2023-05-20T06:21:43;5.28;;;4.53;;
38513;SDS011;24282;48.400;10.808;2023-05-20T06:24:13;5.45;;;4.95;;
38513;SDS011;24282;48.400;10.808;2023-05-20T06:26:39;6.30;;;5.40;;
38513;SDS011;24282;48.400;10.808;2023-05-20T06:29:14;5.70;;;5.18;;
38513;SDS011;24282;48.400;10.808;2023-05-20T06:31:44;5.57;;;5.03;;
38513;SDS011;24282;48.400;10.808;2023-05-20T06:34:12;5.40;;;4.90;;
38513;SDS011;24282;48.400;10.808;2023-05-20T06:36:49;5.80;;;4.77;;
38513;SDS011;24282;48.400;10.808;2023-05-20T06:39:17;4.80;;;4.20;;
38513;SDS011;24282;48.400;10.808;2023-05-20T06:41:46;5.80;;;5.20;;
38513;SDS011;24282;48.400;10.808;2023-05-20T06:44:25;5.15;;;4.43;;
38513;SDS011;24282;48.400;10.808;2023-05-20T06:46:57;5.40;;;4.32;;
38513;SDS011;24282;48.400;10.808;2023-05-20T06:49:23;5.15;;;4.65;;
38513;SDS011;24282;48.400;10.808;2023-05-20T06:51:56;5.20;;;4.00;;
38513;SDS011;24282;48.400;10.808;2023-05-20T06:54:26;5.53;;;4.35;;
38513;SDS011;24282;48.400;10.808;2023-05-20T06:56:52;5.93;;;4.75;;
38513;SDS011;24282;48.400;10.808;2023-05-20T06:59:19;5.05;;;4.35;;
38513;SDS011;24282;48.400;10.808;2023-05-20T07:01:51;5.97;;;4.45;;
38513;SDS011;24282;48.400;10.808;2023-05-20T07:04:17;5.22;;;4.72;;
38513;SDS011;24282;48.400;10.808;2023-05-20T07:06:43;4.38;;;3.95;;
38513;SDS011;24282;48.400;10.808;2023-05-20T07:09:09;5.13;;;4.47;;
38513;SDS011;24282;48.400;10.808;2023-05-20T07:11:35;4.38;;;3.67;;
38513;SDS011;24282;48.400;10.808;2023-05-20T07:14:03;4.50;;;4.10;;
38513;SDS011;24282;48.400;10.808;2023-05-20T07:16:35;5.45;;;3.70;;
38513;SDS011;24282;48.400;10.808;2023-05-20T07:19:11;5.53;;;4.88;;
38513;SDS011;24282;48.400;10.808;2023-05-20T07:21:41;4.85;;;4.35;;
38513;SDS011;24282;48.400;10.808;2023-05-20T07:24:33;4.45;;;3.85;;
38513;SDS011;24282;48.400;10.808;2023-05-20T07:27:03;5.47;;;3.88;;
38513;SDS011;24282;48.400;10.808;2023-05-20T07:29:33;4.53;;;4.03;;
38513;SDS011;24282;48.400;10.808;2023-05-20T07:32:07;4.85;;;3.92;;
38513;SDS011;24282;48.400;10.808;2023-05-20T07:34:33;5.45;;;4.35;;
38513;SDS011;24282;48.400;10.808;2023-05-20T07:36:59;4.78;;;3.80;;
38513;SDS011;24282;48.400;10.808;2023-05-20T07:39:25;4.25;;;3.83;;
38513;SDS011;24282;48.400;10.808;2023-05-20T07:41:51;4.20;;;3.50;;
38513;SDS011;24282;48.400;10.808;2023-05-20T07:44:20;4.63;;;3.47;;
38513;SDS011;24282;48.400;10.808;2023-05-20T07:46:49;4.30;;;3.80;;
38513;SDS011;24282;48.400;10.808;2023-05-20T07:49:19;4.40;;;3.97;;
38513;SDS011;24282;48.400;10.808;2023-05-20T07:51:45;5.38;;;4.03;;
38513;SDS011;24282;48.400;10.808;2023-05-20T07:54:13;4.40;;;3.70;;
38513;SDS011;24282;48.400;10.808;2023-05-20T07:56:39;3.92;;;3.45;;
38513;SDS011;24282;48.400;10.808;2023-05-20T07:59:08;4.53;;;4.13;;
38513;SDS011;24282;48.400;10.808;2023-05-20T08:01:40;4.35;;;3.70;;
38513;SDS011;24282;48.400;10.808;2023-05-20T08:04:06;3.97;;;3.47;;
38513;SDS011;24282;48.400;10.808;2023-05-20T08:06:33;3.80;;;3.40;;
38513;SDS011;24282;48.400;10.808;2023-05-20T08:09:00;4.47;;;3.70;;
38513;SDS011;24282;48.400;10.808;2023-05-20T08:11:31;5.28;;;3.63;;
38513;SDS011;24282;48.400;10.808;2023-05-20T08:13:58;3.47;;;3.13;;
38513;SDS011;24282;48.400;10.808;2023-05-20T08:16:27;3.65;;;2.90;;
38513;SDS011;24282;48.400;10.808;2023-05-20T08:18:53;3.90;;;3.30;;
38513;SDS011;24282;48.400;10.808;2023-05-20T08:21:19;3.25;;;2.95;;
38513;SDS011;24282;48.400;10.808;2023-05-20T08:23:45;4.00;;;3.30;;
38513;SDS011;24282;48.400;10.808;2023-05-20T08:26:11;4.07;;;3.13;;
38513;SDS011;24282;48.400;10.808;2023-05-20T08:28:40;4.03;;;3.10;;
38513;SDS011;24282;48.400;10.808;2023-05-20T08:31:06;5.07;;;3.58;;
38513;SDS011;24282;48.400;10.808;2023-05-20T08:33:32;3.78;;;3.30;;
38513;SDS011;24282;48.400;10.808;2023-05-20T08:35:58;3.53;;;2.75;;
38513;SDS011;24282;48.400;10.808;2023-05-20T08:38:24;3.72;;;3.25;;
38513;SDS011;24282;48.400;10.808;2023-05-20T08:40:50;4.05;;;3.17;;
38513;SDS011;24282;48.400;10.808;2023-05-20T08:43:20;3.85;;;3.40;;
38513;SDS011;24282;48.400;10.808;2023-05-20T08:45:47;3.75;;;3.03;;
38513;SDS011;24282;48.400;10.808;2023-05-20T08:48:15;3.80;;;3.35;;
38513;SDS011;24282;48.400;10.808;2023-05-20T08:50:43;3.40;;;2.67;;
38513;SDS011;24282;48.400;10.808;2023-05-20T08:53:12;3.58;;;2.95;;
38513;SDS011;24282;48.400;10.808;2023-05-20T08:55:42;3.85;;;3.20;;
38513;SDS011;24282;48.400;10.808;2023-05-20T08:58:14;3.58;;;3.20;;
38513;SDS011;24282;48.400;10.808;2023-05-20T09:00:40;3.40;;;2.63;;
38513;SDS011;24282;48.400;10.808;2023-05-20T09:03:06;3.80;;;3.05;;
38513;SDS011;24282;48.400;10.808;2023-05-20T09:05:32;3.75;;;3.30;;
38513;SDS011;24282;48.400;10.808;2023-05-20T09:08:05;3.20;;;2.70;;
38513;SDS011;24282;48.400;10.808;2023-05-20T09:10:32;3.38;;;2.80;;
38513;SDS011;24282;48.400;10.808;2023-05-20T09:13:02;4.03;;;3.33;;
38513;SDS011;24282;48.400;10.808;2023-05-20T09:15:30;4.20;;;2.97;;
38513;SDS011;24282;48.400;10.808;2023-05-20T09:18:00;4.63;;;3.03;;
38513;SDS011;24282;48.400;10.808;2023-05-20T09:20:27;3.60;;;2.78;;
38513;SDS011;24282;48.400;10.808;2023-05-20T09:22:59;4.45;;;3.53;;
38513;SDS011;24282;48.400;10.808;2023-05-20T09:25:26;3.70;;;3.05;;
38513;SDS011;24282;48.400;10.808;2023-05-20T09:27:53;4.07;;;2.90;;
38513;SDS011;24282;48.400;10.808;2023-05-20T09:30:20;3.60;;;2.78;;
38513;SDS011;24282;48.400;10.808;2023-05-20T09:32:57;3.00;;;2.45;;
38513;SDS011;24282;48.400;10.808;2023-05-20T09:35:24;4.75;;;2.90;;
38513;SDS011;24282;48.400;10.808;2023-05-20T09:37:52;3.15;;;2.83;;
38513;SDS011;24282;48.400;10.808;2023-05-20T09:40:20;3.28;;;2.80;;
38513;SDS011;24282;48.400;10.808;2023-05-20T09:42:50;3.40;;;2.65;;
38513;SDS011;24282;48.400;10.808;2023-05-20T09:45:19;2.80;;;2.40;;
38513;SDS011;24282;48.400;10.808;2023-05-20T09:47:46;3.17;;;2.88;;
38513;SDS011;24282;48.400;10.808;2023-05-20T09:50:12;3.13;;;2.58;;
38513;SDS011;24282;48.400;10.808;2023-05-20T09:52:40;2.92;;;2.45;;
38513;SDS011;24282;48.400;10.808;2023-05-20T09:55:08;2.72;;;2.30;;
38513;SDS011;24282;48.400;10.808;2023-05-20T09:57:37;3.25;;;2.60;;
38513;SDS011;24282;48.400;10.808;2023-05-20T10:00:04;3.42;;;2.78;;
38513;SDS011;24282;48.400;10.808;2023-05-20T10:02:37;2.50;;;2.17;;
38513;SDS011;24282;48.400;10.808;2023-05-20T10:05:09;2.92;;;2.45;;
38513;SDS011;24282;48.400;10.808;2023-05-20T10:10:44;3.00;;;2.33;;
38513;SDS011;24282;48.400;10.808;2023-05-20T10:16:02;4.25;;;2.90;;
38513;SDS011;24282;48.400;10.808;2023-05-20T10:18:57;2.50;;;2.10;;
38513;SDS011;24282;48.400;10.808;2023-05-20T10:21:32;3.13;;;2.50;;
38513;SDS011;24282;48.400;10.808;2023-05-20T10:24:07;2.55;;;2.35;;
38513;SDS011;24282;48.400;10.808;2023-05-20T10:26:38;2.95;;;2.65;;
38513;SDS011;24282;48.400;10.808;2023-05-20T10:29:17;3.53;;;2.28;;
38513;SDS011;24282;48.400;10.808;2023-05-20T10:31:47;2.35;;;2.08;;
38513;SDS011;24282;48.400;10.808;2023-05-20T10:34:17;3.50;;;2.05;;
38513;SDS011;24282;48.400;10.808;2023-05-20T10:39:25;2.03;;;1.77;;
38513;SDS011;24282;48.400;10.808;2023-05-20T10:41:53;3.03;;;1.95;;
38513;SDS011;24282;48.400;10.808;2023-05-20T10:44:42;2.95;;;2.17;;
38513;SDS011;24282;48.400;10.808;2023-05-20T10:47:13;3.53;;;2.10;;
38513;SDS011;24282;48.400;10.808;2023-05-20T10:49:45;3.10;;;1.90;;
38513;SDS011;24282;48.400;10.808;2023-05-20T10:52:12;3.40;;;2.50;;
38513;SDS011;24282;48.400;10.808;2023-05-20T10:54:53;3.95;;;2.70;;
38513;SDS011;24282;48.400;10.808;2023-05-20T10:57:20;2.13;;;1.83;;
38513;SDS011;24282;48.400;10.808;2023-05-20T10:59:46;3.25;;;2.47;;
38513;SDS011;24282;48.400;10.808;2023-05-20T11:02:16;2.78;;;2.05;;
38513;SDS011;24282;48.400;10.808;2023-05-20T11:04:44;1.75;;;1.45;;
38513;SDS011;24282;48.400;10.808;2023-05-20T11:07:23;2.60;;;1.80;;
38513;SDS011;24282;48.400;10.808;2023-05-20T11:09:58;2.70;;;1.95;;
38513;SDS011;24282;48.400;10.808;2023-05-20T11:12:27;2.35;;;1.75;;
38513;SDS011;24282;48.400;10.808;2023-05-20T11:14:53;2.80;;;1.73;;
38513;SDS011;24282;48.400;10.808;2023-05-20T11:17:19;2.63;;;1.70;;
38513;SDS011;24282;48.400;10.808;2023-05-20T11:19:49;2.30;;;1.92;;
38513;SDS011;24282;48.400;10.808;2023-05-20T11:22:15;2.72;;;2.00;;
38513;SDS011;24282;48.400;10.808;2023-05-20T11:24:48;2.40;;;2.10;;
38513;SDS011;24282;48.400;10.808;2023-05-20T11:27:18;2.70;;;2.00;;
38513;SDS011;24282;48.400;10.808;2023-05-20T11:29:44;3.00;;;2.30;;
38513;SDS011;24282;48.400;10.808;2023-05-20T11:32:18;3.00;;;2.08;;
38513;SDS011;24282;48.400;10.808;2023-05-20T11:34:49;2.50;;;1.70;;
38513;SDS011;24282;48.400;10.808;2023-05-20T11:37:16;2.65;;;2.10;;
38513;SDS011;24282;48.400;10.808;2023-05-20T11:39:44;2.67;;;2.10;;
38513;SDS011;24282;48.400;10.808;2023-05-20T11:42:10;2.53;;;1.85;;
38513;SDS011;24282;48.400;10.808;2023-05-20T11:44:35;2.17;;;1.75;;
38513;SDS011;24282;48.400;10.808;2023-05-20T11:47:02;1.92;;;1.70;;
38513;SDS011;24282;48.400;10.808;2023-05-20T11:49:28;4.43;;;1.83;;
38513;SDS011;24282;48.400;10.808;2023-05-20T11:51:55;2.03;;;1.70;;
38513;SDS011;24282;48.400;10.808;2023-05-20T11:54:21;2.50;;;2.15;;
38513;SDS011;24282;48.400;10.808;2023-05-20T11:56:48;2.30;;;1.60;;
38513;SDS011;24282;48.400;10.808;2023-05-20T11:59:14;2.53;;;1.90;;
38513;SDS011;24282;48.400;10.808;2023-05-20T12:01:40;2.97;;;2.05;;
38513;SDS011;24282;48.400;10.808;2023-05-20T12:04:06;2.10;;;1.65;;
38513;SDS011;24282;48.400;10.808;2023-05-20T12:06:32;3.75;;;2.20;;
38513;SDS011;24282;48.400;10.808;2023-05-20T12:09:01;1.90;;;1.50;;
38513;SDS011;24282;48.400;10.808;2023-05-20T12:11:37;2.13;;;1.80;;
38513;SDS011;24282;48.400;10.808;2023-05-20T12:14:05;2.25;;;1.70;;
38513;SDS011;24282;48.400;10.808;2023-05-20T12:16:32;2.45;;;1.73;;
38513;SDS011;24282;48.400;10.808;2023-05-20T12:18:58;2.55;;;1.85;;
38513;SDS011;24282;48.400;10.808;2023-05-20T12:21:32;2.17;;;1.85;;
38513;SDS011;24282;48.400;10.808;2023-05-20T12:23:58;2.40;;;1.85;;
38513;SDS011;24282;48.400;10.808;2023-05-20T12:26:24;3.42;;;1.63;;
38513;SDS011;24282;48.400;10.808;2023-05-20T12:28:51;2.92;;;1.95;;
38513;SDS011;24282;48.400;10.808;2023-05-20T12:31:17;2.85;;;1.77;;
38513;SDS011;24282;48.400;10.808;2023-05-20T12:33:43;2.03;;;1.67;;
38513;SDS011;24282;48.400;10.808;2023-05-20T12:36:09;3.30;;;2.13;;
38513;SDS011;24282;48.400;10.808;2023-05-20T12:38:34;2.45;;;1.60;;
38513;SDS011;24282;48.400;10.808;2023-05-20T12:41:00;2.20;;;1.90;;
38513;SDS011;24282;48.400;10.808;2023-05-20T12:43:26;2.22;;;1.50;;
38513;SDS011;24282;48.400;10.808;2023-05-20T12:45:52;2.05;;;1.70;;
38513;SDS011;24282;48.400;10.808;2023-05-20T12:48:18;1.73;;;1.40;;
38513;SDS011;24282;48.400;10.808;2023-05-20T12:50:44;2.28;;;1.80;;
38513;SDS011;24282;48.400;10.808;2023-05-20T12:53:10;2.38;;;1.60;;
38513;SDS011;24282;48.400;10.808;2023-05-20T12:55:35;2.10;;;1.90;;
38513;SDS011;24282;48.400;10.808;2023-05-20T12:58:02;2.20;;;1.70;;
38513;SDS011;24282;48.400;10.808;2023-05-20T13:00:28;2.22;;;1.70;;
38513;SDS011;24282;48.400;10.808;2023-05-20T13:02:55;2.30;;;1.60;;
38513;SDS011;24282;48.400;10.808;2023-05-20T13:05:21;1.60;;;1.33;;
38513;SDS011;24282;48.400;10.808;2023-05-20T13:07:46;3.13;;;1.58;;
38513;SDS011;24282;48.400;10.808;2023-05-20T13:10:13;2.42;;;1.67;;
38513;SDS011;24282;48.400;10.808;2023-05-20T13:12:39;1.70;;;1.48;;
38513;SDS011;24282;48.400;10.808;2023-05-20T13:15:09;2.47;;;1.45;;
38513;SDS011;24282;48.400;10.808;2023-05-20T13:17:39;2.80;;;1.90;;
38513;SDS011;24282;48.400;10.808;2023-05-20T13:20:05;2.55;;;1.58;;
38513;SDS011;24282;48.400;10.808;2023-05-20T13:22:31;1.60;;;1.40;;
38513;SDS011;24282;48.400;10.808;2023-05-20T13:24:57;2.22;;;1.63;;
38513;SDS011;24282;48.400;10.808;2023-05-20T13:27:23;4.10;;;1.65;;
38513;SDS011;24282;48.400;10.808;2023-05-20T13:29:49;2.20;;;1.67;;
38513;SDS011;24282;48.400;10.808;2023-05-20T13:32:14;2.00;;;1.65;;
38513;SDS011;24282;48.400;10.808;2023-05-20T13:34:40;2.22;;;1.48;;
38513;SDS011;24282;48.400;10.808;2023-05-20T13:37:06;4.47;;;1.95;;
38513;SDS011;24282;48.400;10.808;2023-05-20T13:39:32;1.77;;;1.45;;
38513;SDS011;24282;48.400;10.808;2023-05-20T13:41:57;1.80;;;1.40;;
38513;SDS011;24282;48.400;10.808;2023-05-20T13:44:23;1.92;;;1.45;;
38513;SDS011;24282;48.400;10.808;2023-05-20T13:46:49;2.40;;;1.77;;
38513;SDS011;24282;48.400;10.808;2023-05-20T13:49:15;2.45;;;1.80;;
38513;SDS011;24282;48.400;10.808;2023-05-20T13:51:41;4.25;;;1.77;;
38513;SDS011;24282;48.400;10.808;2023-05-20T13:54:07;2.63;;;1.90;;
38513;SDS011;24282;48.400;10.808;2023-05-20T13:56:33;2.22;;;1.92;;
38513;SDS011;24282;48.400;10.808;2023-05-20T13:58:59;2.05;;;1.67;;
38513;SDS011;24282;48.400;10.808;2023-05-20T14:01:25;7.00;;;2.80;;
38513;SDS011;24282;48.400;10.808;2023-05-20T14:03:54;3.15;;;1.50;;
38513;SDS011;24282;48.400;10.808;2023-05-20T14:06:29;2.17;;;1.67;;
38513;SDS011;24282;48.400;10.808;2023-05-20T14:09:07;2.38;;;1.70;;
38513;SDS011;24282;48.400;10.808;2023-05-20T14:11:33;2.78;;;1.75;;
38513;SDS011;24282;48.400;10.808;2023-05-20T14:14:46;3.75;;;1.90;;
38513;SDS011;24282;48.400;10.808;2023-05-20T14:17:18;2.58;;;1.70;;
38513;SDS011;24282;48.400;10.808;2023-05-20T14:20:00;3.05;;;2.22;;
38513;SDS011;24282;48.400;10.808;2023-05-20T14:22:30;2.97;;;2.47;;
38513;SDS011;24282;48.400;10.808;2023-05-20T14:25:09;2.85;;;2.30;;
38513;SDS011;24282;48.400;10.808;2023-05-20T14:27:44;2.72;;;2.10;;
38513;SDS011;24282;48.400;10.808;2023-05-20T14:30:20;3.03;;;2.30;;
38513;SDS011;24282;48.400;10.808;2023-05-20T14:32:58;2.60;;;2.28;;
38513;SDS011;24282;48.400;10.808;2023-05-20T14:35:35;3.70;;;2.20;;
38513;SDS011;24282;48.400;10.808;2023-05-20T14:38:03;2.77;;;2.10;;
38513;SDS011;24282;48.400;10.808;2023-05-20T14:40:40;2.50;;;1.83;;
38513;SDS011;24282;48.400;10.808;2023-05-20T14:43:06;3.15;;;2.20;;
38513;SDS011;24282;48.400;10.808;2023-05-20T14:45:32;3.65;;;2.15;;
38513;SDS011;24282;48.400;10.808;2023-05-20T14:48:00;2.92;;;2.10;;
38513;SDS011;24282;48.400;10.808;2023-05-20T14:50:36;2.53;;;1.95;;
38513;SDS011;24282;48.400;10.808;2023-05-20T14:53:27;2.85;;;2.20;;
38513;SDS011;24282;48.400;10.808;2023-05-20T14:56:19;3.00;;;2.17;;
38513;SDS011;24282;48.400;10.808;2023-05-20T14:58:48;3.25;;;2.53;;